Carmel, CA

2:40 PM PST on December 08, 2016 (GMT -0800)
Downtown Carmel | | Change Station

Elev 230 ft 36.55 °N, 121.92 °W | Updated 3 seconds ago

Overcast
Overcast
63.9 °F
Feels Like 63.9 °F
N
2.0
Wind Variable Wind from SSW
Gusts 11.0 mph

Today
High -- | Low -- °F
--% Chance of Precip.
Yesterday
High -- | Low -- °F
Precip. -- in
Pressure 30.17 in
Visibility 8.0 miles
Clouds Few 2000 ft
Mostly Cloudy 3900 ft
Overcast 5500 ft
Dew Point Not available.
Humidity Not available.
Rainfall 0.00 in
Snow Depth Not available.
7:07 AM 4:51 PM
Waxing Gibbous, 67% visible
METAR KMRY 082154Z 19007KT 8SM -RA FEW020 BKN039 OVC055 18/14 A3013 RMK AO2 RAE10B44 SLP215 P0001 T01780144
Pressure 30.17 in
Visibility 8.0 miles
Clouds Few 2000 ft
Mostly Cloudy 3900 ft
Overcast 5500 ft
Dew Point Not available.
Humidity Not available.
Rainfall 0.00 in
Snow Depth Not available.
7:07 AM 4:51 PM
Waxing Gibbous, 67% visible
METAR KMRY 082154Z 19007KT 8SM -RA FEW020 BKN039 OVC055 18/14 A3013 RMK AO2 RAE10B44 SLP215 P0001 T01780144

10-Day Weather Forecast

Almanac

Astronomy

Dec. 08, 2016 Rise Set
Actual Time
Civil Twilight
Nautical Twilight
Astronomical Twilight
Moon
Length of Visible Light
Length of Day
Tomorrow will be .
, % of the Moon is Illuminated

Today's Extremes

State Highs State Lows

Community

WunderPhotos

Upload Photos

1,956,277 photos uploaded!

WunderBlog® & News

Nearby

Air Quality

  Air Quality AQ Index Pollutant
Not available.

Snow Depth

Station Depth Elevation

Earthquake Activity

City Distance Mag. Time & Date
Minimum magnitude displayed is 2.5.

Coastal Water Temperatures

Place Temperature

Stations

Nearby Weather Stations

Station Location Temp. Windchill Dew Point Humidity Wind Precip. Elev Updated Type
                   

Watches & Warnings

There are currently no watches in effect.